Time;durP1;ratioP1;P1;durP2;ratioP2;P2;SDS_P1;SDS_P2;PMS_P1;PMS_P2;Temp;Humidity;BMP_temperature;BMP_pressure;BME280_temperature;BME280_humidity;BME280_pressure;Samples;Min_cycle;Max_cycle;Signal;HPM_P1;HPM_P2
2022/11/07 00:01:33;;;;;;;;;;;4.80;99.90;;;;;;5037993;28;19917;-74
2022/11/07 00:03:59;;;;;;;;;;;4.80;99.90;;;;;;5055529;28;19909;-74
2022/11/07 00:06:24;;;;;;;;;;;4.80;99.90;;;;;;5038051;28;19952;-74
2022/11/07 00:08:52;;;;;;;;;;;4.80;99.90;;;;;;5055500;28;19952;-74
2022/11/07 00:11:18;;;;;;;;;;;4.90;99.90;;;;;;5055614;28;19913;-74
2022/11/07 00:13:44;;;;;;;;;;;4.90;99.90;;;;;;5055331;28;19927;-74
2022/11/07 00:16:10;;;;;;;;;;;4.90;99.90;;;;;;5055336;28;20292;-73
2022/11/07 00:18:36;;;;;;;;;;;4.90;99.90;;;;;;5037840;28;19916;-74
2022/11/07 00:21:02;;;;;;;;;;;4.90;99.90;;;;;;5055853;28;19909;-74
2022/11/07 00:23:28;;;;;;;;;;;4.90;99.90;;;;;;5055456;28;19999;-73
2022/11/07 00:25:53;;;;;;;;;;;4.90;99.90;;;;;;5055100;28;19997;-74
2022/11/07 00:28:19;;;;;;;;;;;4.90;99.90;;;;;;5055391;28;19912;-74
2022/11/07 00:30:44;;;;;;;;;;;4.90;99.90;;;;;;5055103;28;19913;-74
2022/11/07 00:33:10;;;;;;;;;;;4.80;99.90;;;;;;5055033;28;19913;-74
2022/11/07 00:35:39;;;;;;;;;;;4.90;99.90;;;;;;5054996;28;19956;-74
2022/11/07 00:38:05;;;;;;;;;;;4.80;99.90;;;;;;5055016;28;19916;-74
2022/11/07 00:40:30;;;;;;;;;;;4.90;99.90;;;;;;5055315;28;20350;-74
2022/11/07 00:42:56;;;;;;;;;;;4.90;99.90;;;;;;5054889;28;19913;-74
2022/11/07 00:45:21;;;;;;;;;;;4.90;99.90;;;;;;5055228;28;19912;-74
2022/11/07 00:47:47;;;;;;;;;;;5.00;99.90;;;;;;5054889;28;19913;-74
2022/11/07 00:50:12;;;;;;;;;;;5.00;99.90;;;;;;5055121;28;19912;-74
2022/11/07 00:52:38;;;;;;;;;;;5.00;99.90;;;;;;5054872;28;20007;-74
2022/11/07 00:55:03;;;;;;;;;;;5.00;99.90;;;;;;5054821;28;20014;-75
2022/11/07 00:57:29;;;;;;;;;;;5.10;99.90;;;;;;5054943;28;19917;-74
2022/11/07 00:59:55;;;;;;;;;;;5.10;99.90;;;;;;5055068;28;19913;-74
2022/11/07 01:02:21;;;;;;;;;;;5.10;99.90;;;;;;5054727;28;19963;-74
2022/11/07 01:07:32;;;;;;;;;;;5.10;99.90;;;;;;5055017;28;19982;-74
2022/11/07 01:09:57;;;;;;;;;;;5.10;99.90;;;;;;5054651;28;20002;-74
2022/11/07 01:12:23;;;;;;;;;;;5.10;99.90;;;;;;5054444;28;20570;-74
2022/11/07 01:14:48;;;;;;;;;;;5.00;99.90;;;;;;5054243;28;20241;-74
2022/11/07 01:17:14;;;;;;;;;;;5.00;99.90;;;;;;5054480;28;19982;-75
2022/11/07 01:19:39;;;;;;;;;;;5.00;99.90;;;;;;5053691;28;19920;-74
2022/11/07 01:22:05;;;;;;;;;;;5.00;99.90;;;;;;5053800;28;19909;-74
2022/11/07 01:24:30;;;;;;;;;;;5.00;99.90;;;;;;5054138;28;19913;-75
2022/11/07 01:26:56;;;;;;;;;;;5.00;99.90;;;;;;5054098;28;19912;-74
2022/11/07 01:29:21;;;;;;;;;;;5.00;99.90;;;;;;5054116;28;20007;-75
2022/11/07 01:31:47;;;;;;;;;;;5.00;99.90;;;;;;5036125;28;19962;-74
2022/11/07 01:34:13;;;;;;;;;;;5.00;99.90;;;;;;5053881;28;20056;-74
2022/11/07 01:36:39;;;;;;;;;;;5.00;99.90;;;;;;5053976;28;19923;-74
2022/11/07 01:39:04;;;;;;;;;;;5.10;99.90;;;;;;5054007;28;19913;-74
2022/11/07 01:41:31;;;;;;;;;;;5.10;99.90;;;;;;5053933;28;19991;-74
2022/11/07 01:44:03;;;;;;;;;;;5.20;99.90;;;;;;5054172;28;19909;-74
2022/11/07 01:46:30;;;;;;;;;;;5.10;99.90;;;;;;5053898;28;19912;-74
2022/11/07 01:49:02;;;;;;;;;;;5.10;99.90;;;;;;5035982;28;19936;-74
2022/11/07 01:51:30;;;;;;;;;;;5.10;99.90;;;;;;5054359;28;19915;-75
2022/11/07 01:53:55;;;;;;;;;;;5.20;99.90;;;;;;5053666;28;19908;-74
2022/11/07 01:56:22;;;;;;;;;;;5.20;99.90;;;;;;5035844;28;19916;-74
2022/11/07 01:58:49;;;;;;;;;;;5.20;99.90;;;;;;5053708;28;19913;-74
2022/11/07 02:01:15;;;;;;;;;;;5.20;99.90;;;;;;5053669;28;19919;-75
2022/11/07 02:03:40;;;;;;;;;;;5.20;99.90;;;;;;5053593;28;20369;-74
2022/11/07 02:06:09;;;;;;;;;;;5.20;99.90;;;;;;5054080;28;19935;-74
2022/11/07 02:08:37;;;;;;;;;;;5.30;99.90;;;;;;5053704;28;20365;-74
2022/11/07 02:11:04;;;;;;;;;;;5.30;99.90;;;;;;5053806;28;20281;-74
2022/11/07 02:13:31;;;;;;;;;;;5.20;99.90;;;;;;5035462;28;19928;-74
2022/11/07 02:16:01;;;;;;;;;;;5.20;99.90;;;;;;5035467;28;20365;-74
2022/11/07 02:18:26;;;;;;;;;;;5.20;99.90;;;;;;5053274;28;19909;-74
2022/11/07 02:20:53;;;;;;;;;;;5.20;99.90;;;;;;5053588;28;19913;-74
2022/11/07 02:23:25;;;;;;;;;;;5.20;99.90;;;;;;5053143;28;19917;-74
2022/11/07 02:25:51;;;;;;;;;;;5.20;99.90;;;;;;5053278;28;20369;-74
2022/11/07 02:28:18;;;;;;;;;;;5.20;99.90;;;;;;5053417;28;20004;-74
2022/11/07 02:30:43;;;;;;;;;;;5.20;99.90;;;;;;5053393;28;20258;-74
2022/11/07 02:33:19;;;;;;;;;;;5.20;99.90;;;;;;5056573;28;20441;-74
2022/11/07 02:35:46;;;;;;;;;;;5.20;99.90;;;;;;5057278;28;19913;-74
2022/11/07 02:38:25;;;;;;;;;;;5.10;99.90;;;;;;5057475;28;20273;-74
2022/11/07 02:40:54;;;;;;;;;;;5.10;99.90;;;;;;5057863;28;19909;-74
2022/11/07 02:43:21;;;;;;;;;;;5.10;99.90;;;;;;5057195;28;19915;-74
2022/11/07 02:45:47;;;;;;;;;;;5.00;99.90;;;;;;5057435;28;19909;-74
2022/11/07 02:48:13;;;;;;;;;;;4.90;99.90;;;;;;5057253;28;19953;-74
2022/11/07 02:50:39;;;;;;;;;;;4.90;99.90;;;;;;5057177;28;19917;-74
2022/11/07 02:53:05;;;;;;;;;;;4.80;99.90;;;;;;5022506;28;19949;-74
2022/11/07 02:55:30;;;;;;;;;;;4.80;99.90;;;;;;5039330;28;19964;-74
2022/11/07 02:57:56;;;;;;;;;;;4.80;99.90;;;;;;5056971;28;19916;-74
2022/11/07 03:00:21;;;;;;;;;;;4.80;99.90;;;;;;5057187;28;19917;-74
2022/11/07 03:02:47;;;;;;;;;;;4.70;99.90;;;;;;5056960;28;20380;-74
2022/11/07 03:05:14;;;;;;;;;;;4.60;99.90;;;;;;5056805;28;19917;-74
2022/11/07 03:07:40;;;;;;;;;;;4.60;99.90;;;;;;5056797;28;19909;-74
2022/11/07 03:10:06;;;;;;;;;;;4.50;99.90;;;;;;5057018;28;19909;-74
2022/11/07 03:12:32;;;;;;;;;;;4.40;99.90;;;;;;5056594;28;20297;-73
2022/11/07 03:14:57;;;;;;;;;;;4.40;99.90;;;;;;5038958;28;20372;-74
2022/11/07 03:17:23;;;;;;;;;;;4.40;99.90;;;;;;5057057;28;20008;-74
2022/11/07 03:19:48;;;;;;;;;;;4.40;99.90;;;;;;5056971;28;19965;-74
2022/11/07 03:22:14;;;;;;;;;;;4.30;99.90;;;;;;5038729;28;19972;-73
2022/11/07 03:24:40;;;;;;;;;;;4.30;99.90;;;;;;5038970;28;19909;-74
2022/11/07 03:27:05;;;;;;;;;;;4.40;99.90;;;;;;5056548;28;20008;-74
2022/11/07 03:29:31;;;;;;;;;;;4.40;99.90;;;;;;5056810;28;19988;-74
2022/11/07 03:31:56;;;;;;;;;;;4.30;99.90;;;;;;5038475;28;19913;-74
2022/11/07 03:34:22;;;;;;;;;;;4.30;99.90;;;;;;5038521;28;19970;-74
2022/11/07 03:36:48;;;;;;;;;;;4.30;99.90;;;;;;5056405;28;19969;-74
2022/11/07 03:39:13;;;;;;;;;;;4.30;99.90;;;;;;5056565;28;20369;-74
2022/11/07 03:41:39;;;;;;;;;;;4.20;99.90;;;;;;5056788;28;19913;-75
2022/11/07 03:44:05;;;;;;;;;;;4.20;99.90;;;;;;5037101;28;20395;-74
2022/11/07 03:46:30;;;;;;;;;;;4.10;99.90;;;;;;5056035;28;19952;-75
2022/11/07 03:48:56;;;;;;;;;;;4.10;99.90;;;;;;5056262;28;19912;-74
2022/11/07 03:51:21;;;;;;;;;;;4.00;99.90;;;;;;5056403;28;19913;-74
2022/11/07 03:53:47;;;;;;;;;;;3.90;99.90;;;;;;5055813;28;19920;-74
2022/11/07 03:56:12;;;;;;;;;;;3.80;99.90;;;;;;5021471;28;19916;-74
2022/11/07 03:58:38;;;;;;;;;;;3.70;99.90;;;;;;5055691;28;19917;-74
2022/11/07 04:01:04;;;;;;;;;;;3.70;99.90;;;;;;5055785;28;19951;-75
2022/11/07 04:03:30;;;;;;;;;;;3.60;99.90;;;;;;5055640;28;19971;-74
2022/11/07 04:05:55;;;;;;;;;;;3.60;99.90;;;;;;5055653;28;19917;-75
2022/11/07 04:08:21;;;;;;;;;;;3.60;99.90;;;;;;5055643;28;19913;-75
2022/11/07 04:10:46;;;;;;;;;;;3.60;99.90;;;;;;5055903;28;19967;-75
2022/11/07 04:18:34;;;;;;;;;;;3.40;99.90;;;;;;5055921;28;19909;-74
2022/11/07 04:20:59;;;;;;;;;;;3.40;99.90;;;;;;5055800;28;19958;-74
2022/11/07 04:23:25;;;;;;;;;;;3.30;99.90;;;;;;5055416;28;19912;-74
2022/11/07 04:28:34;;;;;;;;;;;3.20;99.90;;;;;;5055726;28;19919;-73
2022/11/07 04:31:00;;;;;;;;;;;3.30;99.90;;;;;;5055512;28;19945;-73
2022/11/07 04:33:26;;;;;;;;;;;3.30;99.90;;;;;;5054058;28;19912;-74
2022/11/07 04:35:51;;;;;;;;;;;3.30;99.90;;;;;;5037021;28;19962;-74
2022/11/07 04:38:17;;;;;;;;;;;3.30;99.90;;;;;;5055001;28;19956;-73
2022/11/07 04:40:42;;;;;;;;;;;3.40;99.90;;;;;;5054862;28;19920;-73
2022/11/07 04:43:08;;;;;;;;;;;3.40;99.90;;;;;;5036264;28;20059;-73
2022/11/07 04:45:35;;;;;;;;;;;3.40;99.90;;;;;;5048231;28;19915;-74
2022/11/07 04:48:01;;;;;;;;;;;3.30;99.90;;;;;;5036635;28;19916;-74
2022/11/07 04:50:26;;;;;;;;;;;3.40;99.90;;;;;;5054648;28;19920;-74
2022/11/07 04:52:52;;;;;;;;;;;3.40;99.90;;;;;;5054579;28;19974;-74
2022/11/07 04:55:19;;;;;;;;;;;3.40;99.90;;;;;;5053570;28;19923;-73
2022/11/07 04:57:45;;;;;;;;;;;3.40;99.90;;;;;;5054513;28;20003;-73
2022/11/07 05:00:11;;;;;;;;;;;3.30;99.90;;;;;;5054456;28;20440;-74
2022/11/07 05:02:36;;;;;;;;;;;3.30;99.90;;;;;;5054738;28;20011;-74
2022/11/07 05:05:02;;;;;;;;;;;3.30;99.90;;;;;;5054525;28;19978;-73
2022/11/07 05:07:27;;;;;;;;;;;3.30;99.90;;;;;;5054417;28;19917;-73
2022/11/07 05:09:53;;;;;;;;;;;3.30;99.90;;;;;;5054305;28;19913;-73
2022/11/07 05:12:18;;;;;;;;;;;3.30;99.90;;;;;;5054206;28;19925;-73
2022/11/07 05:14:44;;;;;;;;;;;3.30;99.90;;;;;;5054348;28;20369;-73
2022/11/07 05:17:12;;;;;;;;;;;3.30;99.90;;;;;;5036469;28;19920;-73
2022/11/07 05:19:38;;;;;;;;;;;3.30;99.90;;;;;;5054075;28;19966;-73
2022/11/07 05:24:48;;;;;;;;;;;3.10;99.90;;;;;;5053201;28;20273;-73
2022/11/07 05:27:17;;;;;;;;;;;3.00;99.90;;;;;;5054527;28;19913;-73
2022/11/07 05:29:43;;;;;;;;;;;2.90;99.90;;;;;;5054428;28;19909;-72
2022/11/07 05:32:09;;;;;;;;;;;2.90;99.90;;;;;;5054471;28;19919;-72
2022/11/07 05:34:34;;;;;;;;;;;2.90;99.90;;;;;;5054103;28;19917;-73
2022/11/07 05:37:00;;;;;;;;;;;2.90;99.90;;;;;;5054155;28;19908;-74
2022/11/07 05:39:25;;;;;;;;;;;2.90;99.90;;;;;;5054456;28;19976;-73
2022/11/07 05:41:51;;;;;;;;;;;2.80;99.90;;;;;;5054141;28;19963;-73
2022/11/07 05:44:16;;;;;;;;;;;2.80;99.90;;;;;;5053922;28;19968;-72
2022/11/07 05:46:42;;;;;;;;;;;2.80;99.90;;;;;;5053857;28;19924;-72
2022/11/07 05:49:08;;;;;;;;;;;2.80;99.90;;;;;;5053851;28;20435;-72
2022/11/07 05:51:33;;;;;;;;;;;2.70;99.90;;;;;;5053850;28;20291;-72
2022/11/07 05:53:59;;;;;;;;;;;2.60;99.90;;;;;;5052611;28;19923;-72
2022/11/07 05:56:24;;;;;;;;;;;2.60;99.90;;;;;;5053815;28;20262;-73
2022/11/07 05:58:50;;;;;;;;;;;2.60;99.90;;;;;;5053786;28;20269;-73
2022/11/07 06:01:15;;;;;;;;;;;2.70;99.90;;;;;;5053785;28;20391;-73
2022/11/07 06:03:41;;;;;;;;;;;2.70;99.90;;;;;;5053989;28;20431;-72
2022/11/07 06:06:06;;;;;;;;;;;2.60;99.90;;;;;;5035591;28;19920;-72
2022/11/07 06:08:32;;;;;;;;;;;2.60;99.90;;;;;;5053586;28;19913;-73
2022/11/07 06:10:57;;;;;;;;;;;2.60;99.90;;;;;;5053662;28;19936;-72
2022/11/07 06:13:23;;;;;;;;;;;2.50;99.90;;;;;;5053473;28;19920;-72
2022/11/07 06:15:48;;;;;;;;;;;2.50;99.90;;;;;;5035737;28;20035;-73
2022/11/07 06:18:16;;;;;;;;;;;2.50;99.90;;;;;;5053569;28;19913;-72
2022/11/07 06:20:41;;;;;;;;;;;2.50;99.90;;;;;;5053507;28;19963;-73
2022/11/07 06:23:07;;;;;;;;;;;2.50;99.90;;;;;;5053406;28;20308;-71
2022/11/07 06:25:33;;;;;;;;;;;2.50;99.90;;;;;;5035694;28;20333;-73
2022/11/07 06:28:02;;;;;;;;;;;2.50;99.90;;;;;;5053502;28;20312;-72
2022/11/07 06:30:28;;;;;;;;;;;2.50;99.90;;;;;;5053797;28;20022;-72
2022/11/07 06:32:54;;;;;;;;;;;2.50;99.90;;;;;;5053419;28;19944;-71
2022/11/07 06:35:20;;;;;;;;;;;2.50;99.90;;;;;;5053339;28;19924;-72
2022/11/07 06:37:45;;;;;;;;;;;2.50;99.90;;;;;;5053310;28;19913;-72
2022/11/07 06:40:11;;;;;;;;;;;2.60;99.90;;;;;;5053372;28;19917;-71
2022/11/07 06:42:37;;;;;;;;;;;2.60;99.90;;;;;;5053236;28;20004;-71
2022/11/07 06:45:03;;;;;;;;;;;2.60;99.90;;;;;;5053299;28;20008;-71
2022/11/07 06:47:28;;;;;;;;;;;2.70;99.90;;;;;;5053562;28;19971;-72
2022/11/07 06:49:54;;;;;;;;;;;2.70;99.90;;;;;;5053237;28;20369;-71
2022/11/07 06:52:19;;;;;;;;;;;2.70;99.90;;;;;;5018898;28;19979;-71
2022/11/07 06:54:45;;;;;;;;;;;2.70;99.90;;;;;;5053168;28;19913;-72
2022/11/07 06:57:10;;;;;;;;;;;2.70;99.90;;;;;;5053165;28;20007;-72
2022/11/07 06:59:36;;;;;;;;;;;2.70;99.90;;;;;;5053123;28;19956;-72
2022/11/07 07:02:01;;;;;;;;;;;2.70;99.90;;;;;;5053164;28;19932;-72
2022/11/07 07:04:27;;;;;;;;;;;2.70;99.90;;;;;;5053062;28;19912;-73
2022/11/07 07:06:52;;;;;;;;;;;2.80;99.90;;;;;;5053119;28;19913;-72
2022/11/07 07:09:18;;;;;;;;;;;2.80;99.90;;;;;;5053033;28;20312;-72
2022/11/07 07:11:44;;;;;;;;;;;2.80;99.90;;;;;;5053004;28;20315;-71
2022/11/07 07:14:10;;;;;;;;;;;2.90;99.90;;;;;;5053888;28;20359;-72
2022/11/07 07:16:35;;;;;;;;;;;2.90;99.90;;;;;;5052936;28;19913;-72
2022/11/07 07:19:01;;;;;;;;;;;2.80;99.90;;;;;;5055932;28;19916;-72
2022/11/07 07:21:27;;;;;;;;;;;2.80;99.90;;;;;;5057084;28;19919;-72
2022/11/07 07:23:52;;;;;;;;;;;2.80;99.90;;;;;;5039152;28;19916;-72
2022/11/07 07:26:18;;;;;;;;;;;2.80;99.90;;;;;;5056625;28;20009;-73
2022/11/07 07:28:43;;;;;;;;;;;2.80;99.90;;;;;;5056609;28;19913;-73
2022/11/07 07:31:12;;;;;;;;;;;2.80;99.90;;;;;;5056589;28;19913;-72
2022/11/07 07:33:38;;;;;;;;;;;2.80;99.90;;;;;;5056458;28;20353;-72
2022/11/07 07:36:04;;;;;;;;;;;2.80;99.90;;;;;;5038577;28;19924;-73
2022/11/07 07:38:29;;;;;;;;;;;2.90;99.90;;;;;;5056651;28;19913;-72
2022/11/07 07:40:55;;;;;;;;;;;3.00;99.90;;;;;;5056604;28;20277;-72
2022/11/07 07:43:21;;;;;;;;;;;3.10;99.90;;;;;;5056239;28;19920;-72
2022/11/07 07:45:46;;;;;;;;;;;3.20;99.90;;;;;;5056499;28;19913;-72
2022/11/07 07:48:12;;;;;;;;;;;3.20;99.90;;;;;;5056247;28;19920;-72
2022/11/07 07:50:38;;;;;;;;;;;3.30;99.90;;;;;;5056454;28;19912;-73
2022/11/07 07:53:03;;;;;;;;;;;3.40;99.90;;;;;;5056103;28;19956;-72
2022/11/07 07:55:29;;;;;;;;;;;3.50;99.90;;;;;;5056047;28;19921;-73
2022/11/07 07:57:54;;;;;;;;;;;3.60;99.90;;;;;;5056345;28;19928;-73
2022/11/07 08:00:20;;;;;;;;;;;3.70;99.90;;;;;;5055979;28;19919;-73
2022/11/07 08:02:45;;;;;;;;;;;3.80;99.90;;;;;;5056098;28;19919;-72
2022/11/07 08:05:11;;;;;;;;;;;3.90;99.90;;;;;;5055928;28;19935;-73
2022/11/07 08:07:47;;;;;;;;;;;3.90;99.90;;;;;;5055872;28;19944;-73
2022/11/07 08:10:13;;;;;;;;;;;4.00;99.90;;;;;;5038344;28;19920;-73
2022/11/07 08:12:42;;;;;;;;;;;4.10;99.90;;;;;;5052624;28;19917;-72
2022/11/07 08:15:08;;;;;;;;;;;4.10;99.90;;;;;;5044650;28;20389;-73
2022/11/07 08:17:33;;;;;;;;;;;4.10;99.90;;;;;;5035527;28;19913;-73
2022/11/07 08:19:59;;;;;;;;;;;4.20;99.90;;;;;;5035913;28;19948;-74
2022/11/07 08:22:24;;;;;;;;;;;4.20;99.90;;;;;;5051542;28;19917;-72
2022/11/07 08:24:50;;;;;;;;;;;4.30;99.90;;;;;;5055535;28;19913;-74
2022/11/07 08:27:15;;;;;;;;;;;4.40;99.90;;;;;;5055518;28;19913;-74
2022/11/07 08:29:41;;;;;;;;;;;4.40;99.90;;;;;;5054916;28;19920;-73
2022/11/07 08:32:06;;;;;;;;;;;4.50;99.90;;;;;;5055650;28;19913;-72
2022/11/07 08:34:32;;;;;;;;;;;4.50;99.90;;;;;;5055573;28;20012;-73
2022/11/07 08:36:57;;;;;;;;;;;4.60;99.90;;;;;;5055612;28;19962;-74
2022/11/07 08:39:23;;;;;;;;;;;4.70;99.90;;;;;;5055326;28;19913;-74
2022/11/07 08:41:48;;;;;;;;;;;4.80;99.90;;;;;;5055256;28;19916;-74
2022/11/07 08:44:14;;;;;;;;;;;4.90;99.90;;;;;;5055165;28;19913;-73
2022/11/07 08:46:39;;;;;;;;;;;5.00;99.90;;;;;;5055174;28;19913;-73
2022/11/07 08:49:05;;;;;;;;;;;5.10;99.90;;;;;;5055357;28;20265;-74
2022/11/07 08:51:31;;;;;;;;;;;5.20;99.90;;;;;;5055114;28;19913;-74
2022/11/07 08:53:57;;;;;;;;;;;5.30;99.90;;;;;;5054958;28;19913;-73
2022/11/07 08:56:23;;;;;;;;;;;5.40;99.90;;;;;;5054928;28;20273;-74
2022/11/07 08:58:48;;;;;;;;;;;5.40;99.90;;;;;;5054960;28;19917;-74
2022/11/07 09:01:14;;;;;;;;;;;5.50;99.90;;;;;;5054907;28;19909;-73
2022/11/07 09:03:40;;;;;;;;;;;5.60;99.90;;;;;;5054797;28;20258;-73
2022/11/07 09:06:05;;;;;;;;;;;5.60;99.90;;;;;;5054797;28;19913;-74
2022/11/07 09:08:31;;;;;;;;;;;5.70;99.90;;;;;;5036962;28;20018;-73
2022/11/07 09:11:01;;;;;;;;;;;5.80;99.90;;;;;;5054990;28;19909;-73
2022/11/07 09:13:27;;;;;;;;;;;5.90;99.90;;;;;;5054480;28;19916;-73
2022/11/07 09:15:55;;;;;;;;;;;6.00;99.90;;;;;;5054815;28;19923;-73
2022/11/07 09:18:21;;;;;;;;;;;6.10;99.90;;;;;;5036595;28;20373;-73
2022/11/07 09:20:46;;;;;;;;;;;6.20;99.90;;;;;;5054807;28;19920;-74
2022/11/07 09:23:12;;;;;;;;;;;6.20;99.90;;;;;;5054399;28;19916;-73
2022/11/07 09:25:37;;;;;;;;;;;6.30;99.90;;;;;;5054397;28;20304;-74
2022/11/07 09:28:03;;;;;;;;;;;6.40;99.90;;;;;;5054376;28;20262;-73
2022/11/07 09:30:28;;;;;;;;;;;6.50;99.90;;;;;;5036465;28;19916;-73
2022/11/07 09:32:55;;;;;;;;;;;6.60;99.90;;;;;;5054248;28;19913;-73
2022/11/07 09:35:20;;;;;;;;;;;6.70;99.90;;;;;;5054111;28;20380;-73
2022/11/07 09:37:46;;;;;;;;;;;6.90;99.90;;;;;;5054203;28;19913;-74
2022/11/07 09:40:20;;;;;;;;;;;7.00;99.90;;;;;;5054376;28;20007;-74
2022/11/07 09:42:54;;;;;;;;;;;7.10;99.90;;;;;;5053515;28;19960;-73
2022/11/07 09:45:19;;;;;;;;;;;7.20;99.90;;;;;;5036474;28;20312;-74
2022/11/07 09:47:55;;;;;;;;;;;7.30;99.90;;;;;;5054581;28;19958;-74
2022/11/07 09:50:20;;;;;;;;;;;7.30;99.90;;;;;;5053989;28;19996;-73
2022/11/07 09:53:06;;;;;;;;;;;7.40;99.90;;;;;;5053938;28;19940;-73
2022/11/07 09:55:32;;;;;;;;;;;7.40;99.90;;;;;;5039547;28;20011;-74
2022/11/07 09:57:59;;;;;;;;;;;7.60;99.90;;;;;;5053846;28;19936;-74
2022/11/07 10:00:28;;;;;;;;;;;7.70;99.90;;;;;;5053788;28;19909;-74
2022/11/07 10:02:55;;;;;;;;;;;7.80;99.90;;;;;;5053742;28;20361;-73
2022/11/07 10:05:37;;;;;;;;;;;7.90;99.90;;;;;;5053755;28;19909;-74
2022/11/07 10:08:06;;;;;;;;;;;8.00;99.90;;;;;;5054031;28;20273;-74
2022/11/07 10:10:53;;;;;;;;;;;8.10;99.90;;;;;;5053698;28;20304;-74
2022/11/07 10:13:25;;;;;;;;;;;8.20;99.90;;;;;;5053874;28;20289;-74
2022/11/07 10:15:50;;;;;;;;;;;8.30;99.90;;;;;;5053856;28;19913;-74
2022/11/07 10:18:19;;;;;;;;;;;8.40;99.90;;;;;;5053852;28;19908;-73
2022/11/07 10:21:03;;;;;;;;;;;8.50;99.90;;;;;;5053505;28;20296;-74
2022/11/07 10:23:34;;;;;;;;;;;8.60;99.90;;;;;;5053557;28;20373;-73
2022/11/07 10:26:05;;;;;;;;;;;8.70;99.90;;;;;;5053801;28;19955;-74
2022/11/07 10:28:31;;;;;;;;;;;8.80;99.90;;;;;;5053737;28;20003;-74
2022/11/07 10:30:59;;;;;;;;;;;8.90;99.90;;;;;;5053767;28;19944;-74
2022/11/07 10:33:31;;;;;;;;;;;8.90;99.90;;;;;;5053407;28;20003;-73
2022/11/07 10:36:00;;;;;;;;;;;9.00;99.90;;;;;;5053400;28;19946;-73
2022/11/07 10:38:27;;;;;;;;;;;9.10;99.90;;;;;;5053748;28;19909;-74
2022/11/07 10:40:52;;;;;;;;;;;9.20;99.90;;;;;;5053396;28;19920;-74
2022/11/07 10:43:28;;;;;;;;;;;9.30;99.90;;;;;;5053254;28;20285;-73
2022/11/07 10:45:54;;;;;;;;;;;9.40;99.90;;;;;;5053679;28;19930;-75
2022/11/07 10:48:20;;;;;;;;;;;9.40;99.90;;;;;;5053627;28;19917;-74
2022/11/07 10:50:52;;;;;;;;;;;9.50;99.90;;;;;;5053360;28;20289;-73
2022/11/07 10:53:18;;;;;;;;;;;9.50;99.90;;;;;;5055191;28;19908;-73
2022/11/07 10:55:48;;;;;;;;;;;9.60;99.90;;;;;;5057354;28;19919;-74
2022/11/07 10:58:34;;;;;;;;;;;9.70;99.90;;;;;;5057581;28;19909;-74
2022/11/07 11:01:02;;;;;;;;;;;9.80;99.90;;;;;;5058019;28;19913;-74
2022/11/07 11:03:30;;;;;;;;;;;9.90;99.90;;;;;;5057833;28;20003;-70
2022/11/07 11:05:55;;;;;;;;;;;10.00;99.90;;;;;;5039202;28;19912;-70
2022/11/07 11:08:26;;;;;;;;;;;10.00;99.90;;;;;;5057092;28;19975;-70
2022/11/07 11:10:51;;;;;;;;;;;10.10;99.90;;;;;;5057318;28;19909;-70
2022/11/07 11:13:30;;;;;;;;;;;10.10;99.90;;;;;;5057017;28;19928;-70
2022/11/07 11:15:58;;;;;;;;;;;10.20;99.90;;;;;;5056892;28;20365;-70
2022/11/07 11:18:23;;;;;;;;;;;10.30;99.90;;;;;;5056936;28;19978;-70
2022/11/07 11:20:56;;;;;;;;;;;10.40;99.90;;;;;;5057148;28;20361;-70
2022/11/07 11:23:24;;;;;;;;;;;10.40;99.90;;;;;;5056726;28;19948;-70
2022/11/07 11:25:50;;;;;;;;;;;10.50;99.90;;;;;;5056974;28;19913;-70
2022/11/07 11:28:39;;;;;;;;;;;10.60;99.90;;;;;;5056751;28;20335;-70
2022/11/07 11:31:07;;;;;;;;;;;10.60;99.90;;;;;;5045831;28;19909;-70
2022/11/07 11:33:44;;;;;;;;;;;10.60;99.90;;;;;;5056438;28;19909;-70
2022/11/07 11:36:14;;;;;;;;;;;10.70;99.90;;;;;;5056387;28;19949;-70
2022/11/07 11:38:39;;;;;;;;;;;10.90;99.90;;;;;;5056722;28;19921;-70
2022/11/07 11:41:05;;;;;;;;;;;11.00;99.90;;;;;;5056363;28;19916;-70
2022/11/07 11:43:54;;;;;;;;;;;11.10;99.90;;;;;;5056289;28;19991;-70
2022/11/07 11:46:29;;;;;;;;;;;11.20;99.90;;;;;;5045559;28;19920;-70
2022/11/07 11:49:27;;;;;;;;;;;11.10;99.90;;;;;;5056307;28;19909;-70
2022/11/07 11:51:54;;;;;;;;;;;11.10;99.90;;;;;;5012211;28;20003;-70
2022/11/07 11:54:20;;;;;;;;;;;11.20;99.90;;;;;;5056642;28;20272;-70
2022/11/07 11:56:45;;;;;;;;;;;11.20;99.90;;;;;;5056299;28;19917;-70
2022/11/07 11:59:11;;;;;;;;;;;11.30;99.90;;;;;;5056119;28;19908;-70
2022/11/07 12:01:55;;;;;;;;;;;11.50;99.90;;;;;;5056059;28;19909;-70
2022/11/07 12:04:38;;;;;;;;;;;11.50;99.90;;;;;;5054939;28;19913;-71
2022/11/07 12:07:10;;;;;;;;;;;11.60;99.90;;;;;;5056236;28;19909;-70
2022/11/07 12:09:41;;;;;;;;;;;11.60;99.90;;;;;;5055917;28;19908;-70
2022/11/07 12:12:19;;;;;;;;;;;11.80;99.90;;;;;;5055701;28;19990;-71
2022/11/07 12:14:56;;;;;;;;;;;11.80;99.90;;;;;;5055759;28;19913;-70
2022/11/07 12:17:33;;;;;;;;;;;11.90;99.90;;;;;;5056377;28;19909;-70
2022/11/07 12:20:10;;;;;;;;;;;11.90;99.90;;;;;;5055958;28;19970;-71
2022/11/07 12:22:43;;;;;;;;;;;11.90;99.90;;;;;;5055828;28;20011;-71
2022/11/07 12:25:18;;;;;;;;;;;12.00;99.90;;;;;;5055623;28;19913;-71
2022/11/07 12:27:55;;;;;;;;;;;12.00;99.90;;;;;;5055901;28;19915;-71
2022/11/07 12:30:24;;;;;;;;;;;12.00;99.90;;;;;;5052578;28;19920;-71
2022/11/07 12:33:01;;;;;;;;;;;12.00;99.90;;;;;;5059938;28;19916;-71
2022/11/07 12:35:33;;;;;;;;;;;12.00;99.90;;;;;;5054268;28;19917;-71
2022/11/07 12:38:10;;;;;;;;;;;12.00;99.90;;;;;;5037040;28;19908;-71
2022/11/07 12:40:42;;;;;;;;;;;12.10;99.90;;;;;;5049463;28;19961;-71
2022/11/07 12:43:43;;;;;;;;;;;12.10;99.90;;;;;;5036621;28;20002;-71
2022/11/07 12:46:27;;;;;;;;;;;12.20;99.90;;;;;;4990316;28;19914;-71
2022/11/07 12:49:22;;;;;;;;;;;12.30;99.90;;;;;;5047146;28;19908;-71
2022/11/07 12:51:56;;;;;;;;;;;12.40;99.90;;;;;;5036671;28;19975;-71
2022/11/07 12:54:24;;;;;;;;;;;12.50;99.90;;;;;;5054781;28;19909;-71
2022/11/07 12:56:51;;;;;;;;;;;12.50;99.90;;;;;;5052904;28;19924;-71
2022/11/07 12:59:27;;;;;;;;;;;12.50;99.90;;;;;;5054041;28;19959;-71
2022/11/07 13:02:05;;;;;;;;;;;12.60;99.90;;;;;;5056658;28;20008;-71
2022/11/07 13:04:37;;;;;;;;;;;12.60;99.90;;;;;;5054659;28;19913;-71
2022/11/07 13:07:02;;;;;;;;;;;12.60;99.90;;;;;;5053516;28;20422;-71
2022/11/07 13:09:36;;;;;;;;;;;12.60;99.90;;;;;;5054083;28;19913;-71
2022/11/07 13:12:12;;;;;;;;;;;12.60;99.90;;;;;;5052555;28;20450;-71
2022/11/07 13:14:39;;;;;;;;;;;12.70;99.90;;;;;;5052043;28;19981;-71
2022/11/07 13:17:11;;;;;;;;;;;12.80;99.90;;;;;;5054316;28;19970;-71
2022/11/07 13:19:39;;;;;;;;;;;12.90;99.90;;;;;;5054411;28;19959;-72
2022/11/07 13:22:06;;;;;;;;;;;13.00;99.90;;;;;;5053372;28;19908;-70
2022/11/07 13:24:35;;;;;;;;;;;13.10;99.90;;;;;;5054258;28;19916;-71
2022/11/07 13:27:01;;;;;;;;;;;13.20;99.90;;;;;;5054192;28;19909;-71
2022/11/07 13:29:34;;;;;;;;;;;13.30;99.90;;;;;;5036530;28;20365;-71
2022/11/07 13:32:05;;;;;;;;;;;13.30;99.90;;;;;;5054229;28;20003;-71
2022/11/07 13:34:51;;;;;;;;;;;13.30;99.90;;;;;;5053713;28;19952;-71
2022/11/07 13:37:19;;;;;;;;;;;13.30;99.90;;;;;;5036247;28;19915;-72
2022/11/07 13:39:46;;;;;;;;;;;13.30;99.90;;;;;;5054230;28;19916;-71
2022/11/07 13:42:18;;;;;;;;;;;13.30;99.90;;;;;;5053853;28;20007;-71
2022/11/07 13:44:49;;;;;;;;;;;13.30;99.90;;;;;;5036697;28;19909;-71
2022/11/07 13:47:18;;;;;;;;;;;13.30;99.90;;;;;;5048008;28;19959;-71
2022/11/07 13:49:45;;;;;;;;;;;13.30;99.90;;;;;;5035133;28;20239;-70
2022/11/07 13:52:29;;;;;;;;;;;13.30;99.90;;;;;;5034279;28;19913;-71
2022/11/07 13:55:03;;;;;;;;;;;13.30;99.90;;;;;;5033926;28;19916;-71
2022/11/07 13:57:43;;;;;;;;;;;13.30;99.90;;;;;;5016281;28;19909;-71
2022/11/07 14:00:13;;;;;;;;;;;13.40;99.90;;;;;;5046278;28;20242;-71
2022/11/07 14:03:11;;;;;;;;;;;13.40;99.90;;;;;;5053672;28;19916;-71
2022/11/07 14:05:37;;;;;;;;;;;13.40;99.90;;;;;;5009806;28;19916;-71
2022/11/07 14:08:04;;;;;;;;;;;13.40;99.90;;;;;;5053855;28;19913;-71
2022/11/07 14:10:32;;;;;;;;;;;13.40;99.90;;;;;;5053498;28;19913;-70
2022/11/07 14:13:21;;;;;;;;;;;13.40;99.90;;;;;;5054008;28;20288;-71
2022/11/07 14:15:48;;;;;;;;;;;13.40;99.90;;;;;;5045522;28;19916;-70
2022/11/07 14:18:15;;;;;;;;;;;13.30;99.90;;;;;;5053935;28;20004;-71
2022/11/07 14:20:47;;;;;;;;;;;13.20;99.90;;;;;;5053048;28;19912;-70
2022/11/07 14:23:13;;;;;;;;;;;13.20;99.90;;;;;;5053806;28;20464;-70
2022/11/07 14:25:39;;;;;;;;;;;13.20;99.90;;;;;;5053480;28;19952;-70
2022/11/07 14:28:06;;;;;;;;;;;13.20;99.90;;;;;;5035083;28;19917;-71
2022/11/07 14:30:31;;;;;;;;;;;13.30;99.90;;;;;;5035789;28;19913;-71
2022/11/07 14:32:58;;;;;;;;;;;13.30;99.90;;;;;;5053423;28;20276;-71
2022/11/07 14:35:26;;;;;;;;;;;13.40;99.90;;;;;;5053423;28;20373;-71
2022/11/07 14:37:51;;;;;;;;;;;13.40;99.90;;;;;;5053361;28;19997;-71
2022/11/07 14:40:17;;;;;;;;;;;13.40;99.90;;;;;;5053206;28;19917;-70
2022/11/07 14:42:43;;;;;;;;;;;13.40;99.90;;;;;;5035507;28;19936;-71
2022/11/07 14:45:12;;;;;;;;;;;13.40;99.90;;;;;;5053034;28;19917;-70